Terminal Aerodrome Forecast
Issued by NWS

Home | Current Version | Previous Version | Text Only | Print | Product List | Glossary On
Versions: 1 2 3 4 5 6 7 8 9 10 11 12 13 14 15 16 17 18 19 20 21
000
FTUS43 KPAH 011903 AAB
TAFOWB
TAF AMD
KOWB 011903Z 0119/0218 25008KT 4SM -SHRA BR SCT006 BKN015
      TEMPO 0119/0120 P6SM NSW BKN006
     FM012000 25007KT P6SM VCSH SCT015 BKN030
      TEMPO 0120/0124 4SM -SHRA BKN015
     FM020100 27002KT P6SM OVC040
     FM020900 00000KT 2SM BR BKN050
     FM021500 28004KT P6SM BKN015=

USA.gov is the U.S. government's official web portal to all federal, state and local government web resources and services.